Time;durP1;ratioP1;P1;durP2;ratioP2;P2;SDS_P1;SDS_P2;PMS_P1;PMS_P2;Temp;Humidity;BMP_temperature;BMP_pressure;BME280_temperature;BME280_humidity;BME280_pressure;Samples;Min_cycle;Max_cycle;Signal;HPM_P1;HPM_P2
2021/10/10 00:00:29;;;;;;;13.33;9.10;;;6.00;99.90;;;;;;5114095;28;20288;-68
2021/10/10 00:02:58;;;;;;;12.97;9.07;;;6.00;99.90;;;;;;5114108;28;20198;-68
2021/10/10 00:05:26;;;;;;;12.37;9.23;;;5.90;99.90;;;;;;5114093;28;20213;-68
2021/10/10 00:07:54;;;;;;;13.87;9.50;;;5.90;99.90;;;;;;5113741;28;20222;-68
2021/10/10 00:10:22;;;;;;;11.40;8.73;;;5.80;99.90;;;;;;5113586;28;20264;-68
2021/10/10 00:12:50;;;;;;;12.67;9.17;;;5.80;99.90;;;;;;5114171;28;20293;-68
2021/10/10 00:15:18;;;;;;;13.63;10.50;;;5.70;99.90;;;;;;5113773;28;20293;-67
2021/10/10 00:17:46;;;;;;;11.80;9.27;;;5.80;99.90;;;;;;5113389;28;20285;-67
2021/10/10 00:20:15;;;;;;;12.40;9.03;;;5.80;99.90;;;;;;5115351;28;20206;-67
2021/10/10 00:22:43;;;;;;;12.57;9.30;;;5.70;99.90;;;;;;5114067;28;20297;-67
2021/10/10 00:25:12;;;;;;;13.00;9.40;;;5.80;99.90;;;;;;5113881;28;20201;-67
2021/10/10 00:27:40;;;;;;;12.23;9.40;;;5.80;99.90;;;;;;5113394;28;20217;-66
2021/10/10 00:30:09;;;;;;;11.50;9.30;;;5.90;99.90;;;;;;5113553;28;20292;-68
2021/10/10 00:32:37;;;;;;;13.53;10.13;;;5.80;99.90;;;;;;5113596;28;20281;-68
2021/10/10 00:35:06;;;;;;;12.47;9.43;;;5.80;99.90;;;;;;5113333;28;20243;-66
2021/10/10 00:37:35;;;;;;;12.23;9.33;;;5.80;99.90;;;;;;5113646;28;20310;-67
2021/10/10 00:40:04;;;;;;;12.47;10.20;;;5.80;99.90;;;;;;5113197;28;20566;-68
2021/10/10 00:42:32;;;;;;;11.47;9.03;;;5.70;99.90;;;;;;5113397;28;20285;-67
2021/10/10 00:45:00;;;;;;;12.00;9.80;;;5.70;99.90;;;;;;5112752;28;20728;-67
2021/10/10 00:47:27;;;;;;;12.57;10.20;;;5.70;99.90;;;;;;5113440;28;20202;-67
2021/10/10 00:49:55;;;;;;;13.13;9.27;;;5.60;99.90;;;;;;5113349;28;20203;-67
2021/10/10 00:52:24;;;;;;;12.43;9.87;;;5.50;99.90;;;;;;5113273;28;20245;-68
2021/10/10 00:54:56;;;;;;;11.50;9.63;;;5.50;99.90;;;;;;5112968;28;20213;-67
2021/10/10 00:57:24;;;;;;;14.50;10.07;;;5.50;99.90;;;;;;5112710;28;20612;-68
2021/10/10 00:59:54;;;;;;;15.17;9.40;;;5.50;99.90;;;;;;5113011;28;20204;-67
2021/10/10 01:02:21;;;;;;;13.93;9.33;;;5.60;99.90;;;;;;5113134;28;20284;-67
2021/10/10 01:04:50;;;;;;;12.80;9.63;;;5.50;99.90;;;;;;5112832;28;20695;-67
2021/10/10 01:07:19;;;;;;;13.50;9.63;;;;;;;;;;5112883;28;20199;-68
2021/10/10 01:09:47;;;;;;;11.23;9.07;;;;;;;;;;5112788;28;20324;-68
2021/10/10 01:12:17;;;;;;;12.70;10.10;;;5.40;99.90;;;;;;5096457;28;20561;-67
2021/10/10 01:14:44;;;;;;;12.63;9.50;;;5.40;99.90;;;;;;5092415;28;20294;-68
2021/10/10 01:17:12;;;;;;;14.47;9.97;;;5.30;99.90;;;;;;5092372;28;20193;-67
2021/10/10 01:19:44;;;;;;;11.67;9.07;;;5.30;99.90;;;;;;5092678;28;20313;-67
2021/10/10 01:22:14;;;;;;;14.30;10.70;;;5.30;99.90;;;;;;5092771;28;20286;-69
2021/10/10 01:24:41;;;;;;;12.60;9.90;;;5.30;99.90;;;;;;5092475;28;20354;-69
2021/10/10 01:27:09;;;;;;;13.57;9.87;;;5.30;99.90;;;;;;5092077;28;20592;-68
2021/10/10 01:29:37;;;;;;;13.87;9.07;;;5.20;99.90;;;;;;5092214;28;20697;-68
2021/10/10 01:32:06;;;;;;;11.13;9.67;;;5.20;99.90;;;;;;5092206;28;20292;-67
2021/10/10 01:34:34;;;;;;;15.30;10.10;;;5.20;99.90;;;;;;5092415;28;20282;-67
2021/10/10 01:37:01;;;;;;;13.63;10.30;;;5.10;99.90;;;;;;5092005;28;20200;-68
2021/10/10 01:39:34;;;;;;;13.60;10.20;;;5.10;99.90;;;;;;5092231;28;20214;-67
2021/10/10 01:42:02;;;;;;;11.90;9.73;;;5.10;99.90;;;;;;5092359;28;20183;-69
2021/10/10 01:44:29;;;;;;;11.17;9.63;;;5.10;99.90;;;;;;5091769;28;20236;-68
2021/10/10 01:46:58;;;;;;;13.20;10.30;;;5.10;99.90;;;;;;5092083;28;20281;-68
2021/10/10 01:49:25;;;;;;;11.90;10.47;;;5.10;99.90;;;;;;5092149;28;20292;-69
2021/10/10 01:51:53;;;;;;;13.80;10.33;;;5.10;99.90;;;;;;5092389;28;20589;-68
2021/10/10 01:54:21;;;;;;;12.43;10.10;;;5.20;99.90;;;;;;5096031;28;20683;-68
2021/10/10 01:56:50;;;;;;;13.40;10.30;;;5.20;99.90;;;;;;5095660;28;20289;-70
2021/10/10 01:59:18;;;;;;;13.50;10.40;;;5.10;99.90;;;;;;5095645;28;20543;-69
2021/10/10 02:01:46;;;;;;;11.90;10.03;;;5.10;99.90;;;;;;5096171;28;20293;-68
2021/10/10 02:04:14;;;;;;;12.10;10.13;;;5.00;99.90;;;;;;5096111;28;20230;-68
2021/10/10 02:06:42;;;;;;;12.80;10.67;;;;;;;;;;5095940;28;20294;-68
2021/10/10 02:09:11;;;;;;;15.00;10.57;;;;;;;;;;5095096;28;20217;-67
2021/10/10 02:11:39;;;;;;;13.63;10.73;;;;;;;;;;5095861;28;20217;-70
2021/10/10 02:14:08;;;;;;;14.30;10.30;;;;;;;;;;5095824;28;20616;-68
2021/10/10 02:16:36;;;;;;;13.07;10.50;;;4.90;99.90;;;;;;5095371;28;20704;-67
2021/10/10 02:19:04;;;;;;;14.00;10.60;;;4.90;99.90;;;;;;5095184;28;20784;-68
2021/10/10 02:21:32;;;;;;;13.70;10.43;;;;;;;;;;5095780;28;20201;-67
2021/10/10 02:24:00;;;;;;;12.47;10.40;;;5.10;99.90;;;;;;5095419;28;20296;-68
2021/10/10 02:26:28;;;;;;;13.30;10.30;;;4.90;99.90;;;;;;5095319;28;20645;-67
2021/10/10 02:28:56;;;;;;;14.13;10.30;;;4.90;99.90;;;;;;5094889;28;20300;-69
2021/10/10 02:31:25;;;;;;;14.10;10.23;;;4.90;99.90;;;;;;5095464;28;20297;-69
2021/10/10 02:33:53;;;;;;;14.57;11.03;;;4.90;99.90;;;;;;5095508;28;20294;-68
2021/10/10 02:36:21;;;;;;;13.83;10.80;;;4.80;99.90;;;;;;5095571;28;20203;-68
2021/10/10 02:38:48;;;;;;;13.50;9.63;;;4.80;99.90;;;;;;5095173;28;20210;-67
2021/10/10 02:41:16;;;;;;;13.53;10.63;;;4.80;99.90;;;;;;5095344;28;20204;-67
2021/10/10 02:43:44;;;;;;;15.93;11.17;;;4.70;99.90;;;;;;5095185;28;20225;-68
2021/10/10 02:46:12;;;;;;;13.73;11.00;;;4.80;99.90;;;;;;5095468;28;20237;-67
2021/10/10 02:48:41;;;;;;;14.07;10.47;;;4.80;99.90;;;;;;5094831;28;20696;-68
2021/10/10 02:51:09;;;;;;;15.43;10.83;;;4.70;99.90;;;;;;5094983;28;20269;-63
2021/10/10 02:53:37;;;;;;;14.03;10.33;;;4.70;99.90;;;;;;5095174;28;20301;-62
2021/10/10 02:56:05;;;;;;;13.77;10.87;;;4.60;99.90;;;;;;5095068;28;20296;-63
2021/10/10 02:58:33;;;;;;;14.17;10.67;;;4.50;99.90;;;;;;5094913;28;20297;-63
2021/10/10 03:01:02;;;;;;;13.43;10.27;;;4.40;99.90;;;;;;5094475;28;20202;-62
2021/10/10 03:03:30;;;;;;;13.77;11.50;;;4.40;99.90;;;;;;5094317;28;20753;-62
2021/10/10 03:05:59;;;;;;;13.60;10.47;;;4.40;99.90;;;;;;5094924;28;20292;-61
2021/10/10 03:08:27;;;;;;;15.00;11.10;;;4.30;99.90;;;;;;5094930;28;20299;-62
2021/10/10 03:10:55;;;;;;;14.10;11.00;;;4.30;99.90;;;;;;5094302;28;20367;-62
2021/10/10 03:13:23;;;;;;;15.37;10.73;;;4.20;99.90;;;;;;5094446;28;20242;-62
2021/10/10 03:15:51;;;;;;;14.33;11.63;;;;;;;;;;5094187;28;20244;-62
2021/10/10 03:18:19;;;;;;;18.83;12.63;;;4.20;99.90;;;;;;5094623;28;20202;-62
2021/10/10 03:20:47;;;;;;;13.93;10.93;;;4.20;99.90;;;;;;5094308;28;20217;-62
2021/10/10 03:23:16;;;;;;;14.23;10.87;;;4.20;99.90;;;;;;5094080;28;20633;-62
2021/10/10 03:25:44;;;;;;;14.90;11.73;;;4.20;99.90;;;;;;5094251;28;20204;-63
2021/10/10 03:28:12;;;;;;;14.13;11.13;;;4.20;99.90;;;;;;5094288;28;20690;-61
2021/10/10 03:30:39;;;;;;;14.47;11.80;;;4.20;99.90;;;;;;5094075;28;20196;-61
2021/10/10 03:33:08;;;;;;;16.80;11.87;;;4.10;99.90;;;;;;5093918;28;20203;-62
2021/10/10 03:35:36;;;;;;;16.10;12.17;;;4.10;99.90;;;;;;5094371;28;20291;-62
2021/10/10 03:38:04;;;;;;;17.10;12.00;;;4.10;99.90;;;;;;5094213;28;20296;-62
2021/10/10 03:40:33;;;;;;;14.67;11.33;;;4.20;99.90;;;;;;5093856;28;20213;-61
2021/10/10 03:43:01;;;;;;;14.93;11.73;;;4.20;99.90;;;;;;5093717;28;20830;-62
2021/10/10 03:45:30;;;;;;;16.80;11.67;;;;;;;;;;5094003;28;20252;-63
2021/10/10 03:47:58;;;;;;;16.00;11.53;;;4.00;99.90;;;;;;5094076;28;20198;-62
2021/10/10 03:50:26;;;;;;;16.37;12.00;;;4.00;99.90;;;;;;5093784;28;20193;-63
2021/10/10 03:52:54;;;;;;;15.10;12.03;;;4.20;99.90;;;;;;5093914;28;20212;-62
2021/10/10 03:55:31;;;;;;;17.40;11.87;;;4.00;99.90;;;;;;5093756;28;20734;-62
2021/10/10 03:58:01;;;;;;;16.67;12.23;;;4.00;99.90;;;;;;5093925;28;20596;-62
2021/10/10 04:00:31;;;;;;;15.63;11.83;;;4.20;99.90;;;;;;5093103;28;20235;-62
2021/10/10 04:03:02;;;;;;;15.37;11.43;;;4.00;99.90;;;;;;5094053;28;20288;-63
2021/10/10 04:05:42;;;;;;;15.47;11.87;;;4.10;99.90;;;;;;5093826;28;20200;-63
2021/10/10 04:08:10;;;;;;;15.53;11.17;;;4.10;99.90;;;;;;5093926;28;20263;-62
2021/10/10 04:10:40;;;;;;;15.67;11.43;;;;;;;;;;5093050;28;21782;-62
2021/10/10 04:13:09;;;;;;;14.70;11.57;;;4.20;99.90;;;;;;5093276;28;20296;-63
2021/10/10 04:15:37;;;;;;;13.90;11.63;;;4.30;99.90;;;;;;5092656;28;20230;-62
2021/10/10 04:18:06;;;;;;;15.47;11.47;;;4.30;99.90;;;;;;5093656;28;20204;-62
2021/10/10 04:20:35;;;;;;;15.43;11.67;;;;;;;;;;5093279;28;20306;-61
2021/10/10 04:23:03;;;;;;;13.73;11.10;;;4.20;99.90;;;;;;5093166;28;20199;-62
2021/10/10 04:25:32;;;;;;;15.30;11.27;;;4.20;99.90;;;;;;5093349;28;20382;-62
2021/10/10 04:27:59;;;;;;;15.10;11.53;;;4.20;99.90;;;;;;5092907;28;20198;-62
2021/10/10 04:30:29;;;;;;;14.63;11.47;;;4.20;99.90;;;;;;5092900;28;20239;-63
2021/10/10 04:32:56;;;;;;;13.53;10.90;;;4.10;99.90;;;;;;5092966;28;20273;-62
2021/10/10 04:35:25;;;;;;;14.83;11.07;;;4.20;99.90;;;;;;5092960;28;20233;-62
2021/10/10 04:37:53;;;;;;;14.17;11.37;;;4.10;99.90;;;;;;5092896;28;20295;-62
2021/10/10 04:40:21;;;;;;;16.67;12.60;;;4.10;99.90;;;;;;5092697;28;20259;-62
2021/10/10 04:42:49;;;;;;;14.90;12.20;;;4.00;99.90;;;;;;5092604;28;20283;-63
2021/10/10 04:45:17;;;;;;;16.43;11.13;;;4.10;99.90;;;;;;5092814;28;20291;-62
2021/10/10 04:47:46;;;;;;;15.70;11.10;;;4.10;99.90;;;;;;5092946;28;20255;-63
2021/10/10 04:50:14;;;;;;;15.80;10.87;;;4.10;99.90;;;;;;5092632;28;20197;-62
2021/10/10 04:52:42;;;;;;;15.87;12.00;;;4.00;99.90;;;;;;5092467;28;20228;-63
2021/10/10 04:55:09;;;;;;;15.13;11.43;;;4.00;99.90;;;;;;5092437;28;20552;-62
2021/10/10 04:57:37;;;;;;;15.40;11.47;;;4.10;99.90;;;;;;5092822;28;20296;-63
2021/10/10 05:00:06;;;;;;;19.07;11.40;;;4.00;99.90;;;;;;5092596;28;20216;-62
2021/10/10 05:02:34;;;;;;;14.43;10.87;;;4.00;99.90;;;;;;5092137;28;20667;-63
2021/10/10 05:05:04;;;;;;;15.20;11.53;;;4.00;99.90;;;;;;5092462;28;20196;-62
2021/10/10 05:07:32;;;;;;;15.87;11.07;;;4.10;99.90;;;;;;5092660;28;20333;-62
2021/10/10 05:09:59;;;;;;;14.37;11.00;;;4.00;99.90;;;;;;5092262;28;20320;-63
2021/10/10 05:12:30;;;;;;;14.40;11.20;;;4.10;99.90;;;;;;5092514;28;20205;-62
2021/10/10 05:14:58;;;;;;;13.77;11.33;;;4.10;99.90;;;;;;5072158;28;20240;-61
2021/10/10 05:17:25;;;;;;;14.37;11.03;;;4.10;99.90;;;;;;5072379;28;20197;-63
2021/10/10 05:19:53;;;;;;;13.30;11.40;;;4.10;99.90;;;;;;5071996;28;20208;-62
2021/10/10 05:22:22;;;;;;;14.60;11.43;;;4.10;99.90;;;;;;5072375;28;20202;-62
2021/10/10 05:24:54;;;;;;;16.87;11.37;;;4.10;99.90;;;;;;5088940;28;20280;-62
2021/10/10 05:27:21;;;;;;;14.60;11.23;;;4.00;99.90;;;;;;5094497;28;20223;-63
2021/10/10 05:29:49;;;;;;;15.37;11.73;;;4.00;99.90;;;;;;5096172;28;20562;-63
2021/10/10 05:32:17;;;;;;;15.13;11.20;;;4.00;99.90;;;;;;5096299;28;20196;-62
2021/10/10 05:34:45;;;;;;;15.93;11.47;;;4.00;99.90;;;;;;5096338;28;20619;-62
2021/10/10 05:37:13;;;;;;;17.97;11.73;;;4.10;99.90;;;;;;5096176;28;20300;-63
2021/10/10 05:39:42;;;;;;;15.37;11.47;;;4.10;99.90;;;;;;5096484;28;20203;-62
2021/10/10 05:42:10;;;;;;;15.33;12.07;;;4.20;99.90;;;;;;5095979;28;20771;-63
2021/10/10 05:44:38;;;;;;;16.03;10.87;;;4.20;99.90;;;;;;5096325;28;20284;-64
2021/10/10 05:47:06;;;;;;;17.07;11.67;;;4.20;99.90;;;;;;5096178;28;20291;-62
2021/10/10 05:49:34;;;;;;;14.77;11.80;;;4.20;99.90;;;;;;5096427;28;20300;-61
2021/10/10 05:52:03;;;;;;;14.90;11.30;;;4.30;99.90;;;;;;5096025;28;20270;-63
2021/10/10 05:54:32;;;;;;;12.03;10.73;;;4.20;99.90;;;;;;5096041;28;20198;-62
2021/10/10 05:57:05;;;;;;;15.97;11.10;;;4.20;99.90;;;;;;5095974;28;20202;-62
2021/10/10 05:59:34;;;;;;;13.43;11.10;;;4.20;99.90;;;;;;5095972;28;20181;-62
2021/10/10 06:02:02;;;;;;;14.87;11.70;;;4.20;99.90;;;;;;5095416;28;20301;-63
2021/10/10 06:04:31;;;;;;;15.10;11.97;;;4.20;99.90;;;;;;5095422;28;20207;-63
2021/10/10 06:06:59;;;;;;;13.13;10.87;;;4.30;99.90;;;;;;5095618;28;20733;-63
2021/10/10 06:09:26;;;;;;;17.73;11.57;;;4.20;99.90;;;;;;5095844;28;20228;-62
2021/10/10 06:11:55;;;;;;;17.00;11.97;;;4.30;99.90;;;;;;5095832;28;20210;-63
2021/10/10 06:14:26;;;;;;;15.93;11.73;;;4.30;99.90;;;;;;5095631;28;20230;-63
2021/10/10 06:16:54;;;;;;;14.93;11.90;;;4.30;99.90;;;;;;5095490;28;20273;-62
2021/10/10 06:19:22;;;;;;;15.67;11.50;;;4.50;99.90;;;;;;5095895;28;20287;-64
2021/10/10 06:21:50;;;;;;;19.83;12.53;;;4.60;99.90;;;;;;5095819;28;20307;-66
2021/10/10 06:24:18;;;;;;;16.33;11.53;;;4.70;99.90;;;;;;5095874;28;20292;-62
2021/10/10 06:26:46;;;;;;;14.17;11.23;;;;;;;;;;5095244;28;20289;-62
2021/10/10 06:29:14;;;;;;;15.13;11.37;;;;;;;;;;5095497;28;20273;-62
2021/10/10 06:31:43;;;;;;;14.97;11.03;;;4.90;99.90;;;;;;5095512;28;20201;-64
2021/10/10 06:34:11;;;;;;;15.57;11.70;;;4.90;99.90;;;;;;5095311;28;20668;-63
2021/10/10 06:36:43;;;;;;;15.90;12.20;;;5.10;99.90;;;;;;5095371;28;20196;-63
2021/10/10 06:39:11;;;;;;;13.73;11.17;;;5.20;99.90;;;;;;5085876;28;20204;-62
2021/10/10 06:41:39;;;;;;;15.80;11.23;;;5.30;99.90;;;;;;5091646;28;20219;-62
2021/10/10 06:44:08;;;;;;;15.17;11.27;;;5.40;99.90;;;;;;5095019;28;20296;-62
2021/10/10 06:46:36;;;;;;;13.60;11.33;;;5.40;99.90;;;;;;5094519;28;20671;-62
2021/10/10 06:49:05;;;;;;;15.20;11.50;;;5.50;99.90;;;;;;5095113;28;20728;-63
2021/10/10 06:51:33;;;;;;;15.43;10.93;;;5.60;99.90;;;;;;5094903;28;20203;-62
2021/10/10 06:54:01;;;;;;;13.63;11.60;;;5.70;99.90;;;;;;5095329;28;20288;-62
2021/10/10 06:56:28;;;;;;;15.80;11.47;;;5.80;99.90;;;;;;5094520;28;20194;-63
2021/10/10 06:58:56;;;;;;;14.70;10.57;;;5.80;99.90;;;;;;5095021;28;20203;-62
2021/10/10 07:01:24;;;;;;;14.63;11.40;;;5.90;99.90;;;;;;5094634;28;20218;-63
2021/10/10 07:03:52;;;;;;;16.07;11.90;;;6.00;99.90;;;;;;5094894;28;20862;-62
2021/10/10 07:06:22;;;;;;;14.83;11.47;;;6.10;99.90;;;;;;5094935;28;20203;-63
2021/10/10 07:08:51;;;;;;;14.10;11.40;;;6.20;99.90;;;;;;5094802;28;20198;-64
2021/10/10 07:11:20;;;;;;;15.53;11.87;;;6.30;99.90;;;;;;5094230;28;20237;-62
2021/10/10 07:13:47;;;;;;;15.70;12.30;;;6.30;99.90;;;;;;5094661;28;20199;-62
2021/10/10 07:16:16;;;;;;;15.60;11.70;;;6.40;99.90;;;;;;5094398;28;20770;-61
2021/10/10 07:18:46;;;;;;;14.47;11.97;;;6.50;99.90;;;;;;5094306;28;20211;-63
2021/10/10 07:21:25;;;;;;;13.73;11.17;;;6.60;99.90;;;;;;5094409;28;20305;-62
2021/10/10 07:24:51;;;;;;;14.17;11.10;;;6.70;99.90;;;;;;5094483;28;20721;-63
2021/10/10 07:26:45;;;;;;;12.30;10.77;;;6.80;99.90;;;;;;5094369;28;20287;-65
2021/10/10 07:29:13;;;;;;;14.27;10.83;;;6.90;99.90;;;;;;5094487;28;20195;-66
2021/10/10 07:31:41;;;;;;;13.03;10.67;;;7.00;99.90;;;;;;5094388;28;20676;-61
2021/10/10 07:34:08;;;;;;;16.13;11.77;;;7.10;99.90;;;;;;5094396;28;20303;-62
2021/10/10 07:36:36;;;;;;;14.10;10.90;;;7.20;99.90;;;;;;5094477;28;20233;-62
2021/10/10 07:39:05;;;;;;;14.37;10.33;;;7.30;99.90;;;;;;5094012;28;20290;-62
2021/10/10 07:41:35;;;;;;;14.87;10.97;;;7.40;99.90;;;;;;5094090;28;20812;-63
2021/10/10 07:44:05;;;;;;;15.07;11.57;;;7.50;99.90;;;;;;5094140;28;20235;-62
2021/10/10 07:46:36;;;;;;;13.20;11.10;;;7.50;99.90;;;;;;5093862;28;20512;-64
2021/10/10 07:49:08;;;;;;;13.60;11.00;;;7.60;99.90;;;;;;5093542;28;20181;-62
2021/10/10 07:51:36;;;;;;;14.33;11.17;;;7.60;99.90;;;;;;5093075;28;20237;-62
2021/10/10 07:54:06;;;;;;;14.23;10.83;;;7.70;99.90;;;;;;5094183;28;20265;-64
2021/10/10 07:56:34;;;;;;;14.03;11.40;;;7.80;99.90;;;;;;5079628;28;20284;-62
2021/10/10 07:59:01;;;;;;;13.13;10.40;;;7.90;99.90;;;;;;5080492;28;20606;-62
2021/10/10 08:01:29;;;;;;;14.20;10.93;;;8.00;99.90;;;;;;5093560;28;20220;-64
2021/10/10 08:03:58;;;;;;;14.23;11.73;;;8.00;99.90;;;;;;5093654;28;20200;-62
2021/10/10 08:06:26;;;;;;;14.87;11.53;;;8.10;99.90;;;;;;5093537;28;20616;-63
2021/10/10 08:08:54;;;;;;;15.10;11.63;;;8.20;99.90;;;;;;5090297;28;20311;-63
2021/10/10 08:11:23;;;;;;;14.07;11.37;;;8.30;99.90;;;;;;5092494;28;20580;-62
2021/10/10 08:13:51;;;;;;;15.77;11.10;;;8.40;99.90;;;;;;5093390;28;20296;-63
2021/10/10 08:16:19;;;;;;;13.70;11.43;;;8.50;99.90;;;;;;5093190;28;20200;-63
2021/10/10 08:18:47;;;;;;;14.17;10.90;;;8.60;99.90;;;;;;5093401;28;20286;-62
2021/10/10 08:21:14;;;;;;;16.30;11.47;;;8.80;99.90;;;;;;5093113;28;20206;-63
2021/10/10 08:23:43;;;;;;;15.13;11.37;;;8.90;99.90;;;;;;5092722;28;20713;-62
2021/10/10 08:26:11;;;;;;;14.47;11.33;;;9.00;99.90;;;;;;5093340;28;20299;-63
2021/10/10 08:28:40;;;;;;;13.07;10.70;;;9.00;99.90;;;;;;5090212;28;20335;-63
2021/10/10 08:31:08;;;;;;;16.30;11.13;;;9.10;99.90;;;;;;5088966;28;20202;-62
2021/10/10 08:33:36;;;;;;;12.03;10.40;;;9.20;99.90;;;;;;5093137;28;20651;-62
2021/10/10 08:36:08;;;;;;;12.83;11.30;;;9.30;99.90;;;;;;5093575;28;20210;-62
2021/10/10 08:38:36;;;;;;;14.53;10.43;;;9.40;99.90;;;;;;5092922;28;20263;-62
2021/10/10 08:41:05;;;;;;;13.97;10.57;;;9.40;99.90;;;;;;5093097;28;20199;-63
2021/10/10 08:43:34;;;;;;;14.33;10.27;;;9.50;99.90;;;;;;5093256;28;20269;-62
2021/10/10 08:46:06;;;;;;;14.80;10.83;;;9.50;99.90;;;;;;5093037;28;20200;-63
2021/10/10 08:48:34;;;;;;;12.90;10.53;;;9.60;99.90;;;;;;5092631;28;20192;-63
2021/10/10 08:51:02;;;;;;;13.97;10.53;;;9.60;99.90;;;;;;5092858;28;20218;-63
2021/10/10 08:53:30;;;;;;;14.57;10.43;;;9.60;99.90;;;;;;5093005;28;20183;-64
2021/10/10 08:55:58;;;;;;;13.37;10.50;;;9.60;99.90;;;;;;5092701;28;20291;-63
2021/10/10 08:58:30;;;;;;;12.00;10.70;;;9.80;99.90;;;;;;5092024;28;20192;-62
2021/10/10 09:01:02;;;;;;;12.87;10.40;;;9.80;99.90;;;;;;5092288;28;20275;-63
2021/10/10 09:03:32;;;;;;;11.90;9.77;;;9.80;99.90;;;;;;5093001;28;20295;-64
2021/10/10 09:06:01;;;;;;;13.77;10.27;;;9.90;99.90;;;;;;5092608;28;20223;-62
2021/10/10 09:08:28;;;;;;;13.77;10.70;;;10.00;99.90;;;;;;5092516;28;20200;-62
2021/10/10 09:10:58;;;;;;;12.23;10.60;;;10.10;99.90;;;;;;5092488;28;20705;-63
2021/10/10 09:13:34;;;;;;;14.73;10.10;;;10.10;99.90;;;;;;5092717;28;20173;-62
2021/10/10 09:16:04;;;;;;;13.93;9.83;;;10.10;99.90;;;;;;5092626;28;20188;-63
2021/10/10 09:18:35;;;;;;;13.53;10.33;;;10.30;99.90;;;;;;5092625;28;20241;-62
2021/10/10 09:21:14;;;;;;;13.27;10.77;;;10.40;99.90;;;;;;5092751;28;20184;-62
2021/10/10 09:23:45;;;;;;;15.47;9.90;;;10.40;99.90;;;;;;5092455;28;20290;-62
2021/10/10 09:26:13;;;;;;;12.20;9.53;;;10.50;99.90;;;;;;5092497;28;20203;-62
2021/10/10 09:28:43;;;;;;;13.00;9.93;;;10.60;99.90;;;;;;5092344;28;20227;-62
2021/10/10 09:31:11;;;;;;;13.03;9.60;;;10.70;99.90;;;;;;5092046;28;20703;-65
2021/10/10 09:33:43;;;;;;;13.27;9.90;;;10.70;99.90;;;;;;5092524;28;20561;-62
2021/10/10 09:36:18;;;;;;;13.00;9.83;;;10.80;99.90;;;;;;5092262;28;20325;-62
2021/10/10 09:38:51;;;;;;;13.20;10.17;;;10.90;99.90;;;;;;5091711;28;20279;-63
2021/10/10 09:41:25;;;;;;;13.27;9.67;;;11.00;99.90;;;;;;5072407;28;20185;-62
2021/10/10 09:43:59;;;;;;;12.50;9.97;;;11.00;99.90;;;;;;5072093;28;20227;-62
2021/10/10 09:46:28;;;;;;;10.93;9.37;;;11.10;99.90;;;;;;5070871;28;20192;-63
2021/10/10 09:48:59;;;;;;;11.73;9.03;;;11.20;99.90;;;;;;5072307;28;20205;-64
2021/10/10 09:51:29;;;;;;;9.80;8.37;;;11.20;99.90;;;;;;5091643;28;20271;-63
2021/10/10 09:54:01;;;;;;;13.43;9.63;;;11.30;99.90;;;;;;5092222;28;20176;-62
2021/10/10 09:56:29;;;;;;;12.57;9.00;;;11.40;99.90;;;;;;5092291;28;20734;-63
2021/10/10 09:58:57;;;;;;;11.70;9.20;;;11.50;99.90;;;;;;5092275;28;20211;-62
2021/10/10 10:01:28;;;;;;;12.37;9.50;;;11.50;99.90;;;;;;5091925;28;20254;-62
2021/10/10 10:04:04;;;;;;;10.60;8.57;;;11.50;99.90;;;;;;5091916;28;20204;-62
2021/10/10 10:06:33;;;;;;;11.43;8.77;;;11.60;99.90;;;;;;5072184;28;20216;-63
2021/10/10 10:09:03;;;;;;;11.73;9.73;;;11.70;99.90;;;;;;5071224;28;20296;-63
2021/10/10 10:11:33;;;;;;;11.00;8.53;;;11.70;99.90;;;;;;5085514;28;20200;-62
2021/10/10 10:14:03;;;;;;;12.70;9.53;;;11.80;99.90;;;;;;5093481;28;20227;-62
2021/10/10 10:16:33;;;;;;;10.70;8.40;;;11.80;99.90;;;;;;5095602;28;20200;-62
2021/10/10 10:19:03;;;;;;;12.90;8.83;;;11.90;99.90;;;;;;5095850;28;20196;-61
2021/10/10 10:21:32;;;;;;;13.70;9.23;;;11.90;99.90;;;;;;5095685;28;20277;-62
2021/10/10 10:24:01;;;;;;;13.87;8.97;;;12.10;99.90;;;;;;5095161;28;20661;-62
2021/10/10 10:26:32;;;;;;;12.40;8.70;;;12.10;99.90;;;;;;5094026;28;20660;-61
2021/10/10 10:29:02;;;;;;;13.70;9.13;;;12.10;99.90;;;;;;5094178;28;20182;-60
2021/10/10 10:31:31;;;;;;;10.80;9.17;;;12.10;99.90;;;;;;5090514;28;20180;-63
2021/10/10 10:34:20;;;;;;;12.37;9.13;;;12.10;99.90;;;;;;5095579;28;20287;-62
2021/10/10 10:36:54;;;;;;;12.03;9.27;;;12.20;99.90;;;;;;5095391;28;20261;-62
2021/10/10 10:39:39;;;;;;;11.00;8.60;;;12.20;99.90;;;;;;5095513;28;20208;-62
2021/10/10 10:42:39;;;;;;;12.03;8.97;;;12.20;99.90;;;;;;5094836;28;20266;-61
2021/10/10 10:45:21;;;;;;;12.90;9.07;;;12.20;99.90;;;;;;5094810;28;20181;-65
2021/10/10 10:47:51;;;;;;;13.13;8.63;;;12.20;99.90;;;;;;5095094;28;20211;-66
2021/10/10 10:50:22;;;;;;;11.37;8.80;;;12.30;99.90;;;;;;5095182;28;20228;-66
2021/10/10 10:52:58;;;;;;;14.13;8.97;;;12.30;99.90;;;;;;5094543;28;20644;-66
2021/10/10 10:55:28;;;;;;;12.27;8.90;;;12.40;99.90;;;;;;5095103;28;20290;-61
2021/10/10 10:57:58;;;;;;;12.03;8.70;;;12.40;99.90;;;;;;5094941;28;20282;-60
2021/10/10 11:00:29;;;;;;;12.23;9.60;;;12.30;99.90;;;;;;5095120;28;20231;-61
2021/10/10 11:03:11;;;;;;;12.77;8.80;;;12.40;99.90;;;;;;5094759;28;20192;-59
2021/10/10 11:05:42;;;;;;;12.27;8.63;;;12.50;99.90;;;;;;5094699;28;20216;-60
2021/10/10 11:08:34;;;;;;;11.50;8.43;;;12.40;99.90;;;;;;5095142;28;20275;-60
2021/10/10 11:11:08;;;;;;;10.73;8.20;;;12.50;99.90;;;;;;5094551;28;20535;-60
2021/10/10 11:13:40;;;;;;;10.63;8.33;;;12.60;99.90;;;;;;5094290;28;20184;-61
2021/10/10 11:16:09;;;;;;;12.17;7.73;;;12.70;99.90;;;;;;5094196;28;20204;-60
2021/10/10 11:18:44;;;;;;;10.83;7.33;;;12.80;99.90;;;;;;5094667;28;20203;-61
2021/10/10 11:21:15;;;;;;;11.33;7.20;;;12.90;99.90;;;;;;5094707;28;20286;-61
2021/10/10 11:23:43;;;;;;;10.97;7.20;;;13.00;99.90;;;;;;5094104;28;20295;-60
2021/10/10 11:26:12;;;;;;;9.30;7.40;;;13.00;99.90;;;;;;5094278;28;20204;-59
2021/10/10 11:28:44;;;;;;;8.45;7.00;;;13.10;99.90;;;;;;5094189;28;20296;-60
2021/10/10 11:31:16;;;;;;;12.67;7.33;;;13.10;99.90;;;;;;5094003;28;20764;-60
2021/10/10 11:33:47;;;;;;;8.47;6.97;;;13.10;99.90;;;;;;5094175;28;20189;-61
2021/10/10 11:36:16;;;;;;;9.63;7.63;;;13.10;99.90;;;;;;5094457;28;20189;-60
2021/10/10 11:38:54;;;;;;;8.73;7.13;;;13.10;99.90;;;;;;5094401;28;20287;-61
2021/10/10 11:41:23;;;;;;;10.37;7.07;;;13.10;99.90;;;;;;5094033;28;20195;-61
2021/10/10 11:43:56;;;;;;;8.73;6.63;;;13.10;99.90;;;;;;5093417;28;20238;-61
2021/10/10 11:46:24;;;;;;;9.55;7.10;;;13.20;99.90;;;;;;5093954;28;20239;-61
2021/10/10 11:48:54;;;;;;;8.90;6.43;;;13.30;99.90;;;;;;5094020;28;20667;-61
2021/10/10 11:51:35;;;;;;;9.07;7.00;;;13.40;99.90;;;;;;5093672;28;20291;-62
2021/10/10 11:54:06;;;;;;;10.07;6.93;;;13.60;99.90;;;;;;5094014;28;20220;-63
2021/10/10 11:56:33;;;;;;;7.70;5.57;;;13.60;99.90;;;;;;5094100;28;20180;-61
2021/10/10 11:59:11;;;;;;;8.77;6.13;;;13.60;99.90;;;;;;5093987;28;20291;-62
2021/10/10 12:01:40;;;;;;;6.83;5.80;;;13.50;99.90;;;;;;5093397;28;20762;-60
2021/10/10 12:04:15;;;;;;;8.67;6.60;;;13.50;99.90;;;;;;5093641;28;20285;-61
2021/10/10 12:06:47;;;;;;;10.37;7.07;;;13.50;99.90;;;;;;5073760;28;20223;-61
2021/10/10 12:09:15;;;;;;;8.93;6.33;;;13.40;99.90;;;;;;5073260;28;20280;-61
2021/10/10 12:12:07;;;;;;;8.57;6.63;;;13.40;99.90;;;;;;5073680;28;20208;-60
2021/10/10 12:14:45;;;;;;;9.60;5.78;;;13.40;99.90;;;;;;5077005;28;20180;-62
2021/10/10 12:17:31;;;;;;;7.37;6.10;;;13.60;99.90;;;;;;5093155;28;20715;-60
2021/10/10 12:20:00;;;;;;;6.87;5.97;;;13.60;99.90;;;;;;5093640;28;20203;-61
2021/10/10 12:22:30;;;;;;;6.05;5.20;;;13.70;99.90;;;;;;5094266;28;20290;-60
2021/10/10 12:24:58;;;;;;;6.65;5.32;;;14.00;99.90;;;;;;5093376;28;20216;-61
2021/10/10 12:27:30;;;;;;;8.80;6.30;;;14.50;99.90;;;;;;5093309;28;20290;-61
2021/10/10 12:30:00;;;;;;;8.15;6.15;;;15.00;99.90;;;;;;5093543;28;20200;-60
2021/10/10 12:32:29;;;;;;;8.43;5.85;;;15.30;99.90;;;;;;5092861;28;20258;-61
2021/10/10 12:35:15;;;;;;;8.38;6.43;;;15.50;99.90;;;;;;5093107;28;20235;-62
2021/10/10 12:37:51;;;;;;;7.28;5.80;;;15.20;99.90;;;;;;5092849;28;20267;-61
2021/10/10 12:40:28;;;;;;;8.75;5.47;;;14.90;99.90;;;;;;5093127;28;20188;-61
2021/10/10 12:42:56;;;;;;;6.30;5.60;;;14.70;99.90;;;;;;5093244;28;20191;-61
2021/10/10 12:45:31;;;;;;;7.22;5.45;;;14.40;99.90;;;;;;5093318;28;20277;-62
2021/10/10 12:48:05;;;;;;;6.40;5.40;;;14.40;99.90;;;;;;5093255;28;20179;-60
2021/10/10 12:50:47;;;;;;;8.25;5.70;;;14.10;99.90;;;;;;5093129;28;20184;-61
2021/10/10 12:53:25;;;;;;;7.32;5.90;;;14.00;99.90;;;;;;5093036;28;20184;-61
2021/10/10 12:56:16;;;;;;;9.35;5.50;;;14.00;99.90;;;;;;5092687;28;20184;-62